sensor_id;sensor_type;location;lat;lon;timestamp;P1;durP1;ratioP1;P2;durP2;ratioP2
83282;SDS011;73190;50.780;5.658;2024-03-02T00:00:20;2.85;;;0.80;;
83282;SDS011;73190;50.780;5.658;2024-03-02T00:02:51;3.67;;;0.90;;
83282;SDS011;73190;50.780;5.658;2024-03-02T00:05:19;3.98;;;0.90;;
83282;SDS011;73190;50.780;5.658;2024-03-02T00:07:52;3.83;;;0.80;;
83282;SDS011;73190;50.780;5.658;2024-03-02T00:10:24;3.77;;;1.07;;
83282;SDS011;73190;50.780;5.658;2024-03-02T00:12:55;4.05;;;1.10;;
83282;SDS011;73190;50.780;5.658;2024-03-02T00:15:34;4.28;;;0.98;;
83282;SDS011;73190;50.780;5.658;2024-03-02T00:18:00;2.75;;;0.60;;
83282;SDS011;73190;50.780;5.658;2024-03-02T00:23:00;8.18;;;1.50;;
83282;SDS011;73190;50.780;5.658;2024-03-02T00:25:43;6.37;;;1.05;;
83282;SDS011;73190;50.780;5.658;2024-03-02T00:30:50;4.60;;;0.98;;
83282;SDS011;73190;50.780;5.658;2024-03-02T00:33:30;5.27;;;0.70;;
83282;SDS011;73190;50.780;5.658;2024-03-02T00:35:56;5.15;;;0.80;;
83282;SDS011;73190;50.780;5.658;2024-03-02T00:38:26;3.40;;;0.80;;
83282;SDS011;73190;50.780;5.658;2024-03-02T00:40:54;2.70;;;0.80;;
83282;SDS011;73190;50.780;5.658;2024-03-02T00:45:57;3.12;;;1.00;;
83282;SDS011;73190;50.780;5.658;2024-03-02T00:48:24;4.05;;;1.12;;
83282;SDS011;73190;50.780;5.658;2024-03-02T00:50:52;5.17;;;0.65;;
83282;SDS011;73190;50.780;5.658;2024-03-02T00:53:21;3.08;;;0.53;;
83282;SDS011;73190;50.780;5.658;2024-03-02T00:55:52;1.37;;;0.30;;
83282;SDS011;73190;50.780;5.658;2024-03-02T00:58:19;1.17;;;0.30;;
83282;SDS011;73190;50.780;5.658;2024-03-02T01:00:47;2.02;;;0.30;;
83282;SDS011;73190;50.780;5.658;2024-03-02T01:03:14;0.82;;;0.25;;
83282;SDS011;73190;50.780;5.658;2024-03-02T01:05:42;2.27;;;0.37;;
83282;SDS011;73190;50.780;5.658;2024-03-02T01:08:10;1.57;;;0.40;;
83282;SDS011;73190;50.780;5.658;2024-03-02T01:10:38;1.10;;;0.28;;
83282;SDS011;73190;50.780;5.658;2024-03-02T01:13:05;1.37;;;0.23;;
83282;SDS011;73190;50.780;5.658;2024-03-02T01:15:33;0.62;;;0.30;;
83282;SDS011;73190;50.780;5.658;2024-03-02T01:18:00;1.22;;;0.10;;
83282;SDS011;73190;50.780;5.658;2024-03-02T01:20:29;0.88;;;0.13;;
83282;SDS011;73190;50.780;5.658;2024-03-02T01:22:57;0.45;;;0.20;;
83282;SDS011;73190;50.780;5.658;2024-03-02T01:25:24;1.10;;;0.20;;
83282;SDS011;73190;50.780;5.658;2024-03-02T01:27:52;0.33;;;0.10;;
83282;SDS011;73190;50.780;5.658;2024-03-02T01:30:19;0.35;;;0.10;;
83282;SDS011;73190;50.780;5.658;2024-03-02T01:32:47;0.60;;;0.10;;
83282;SDS011;73190;50.780;5.658;2024-03-02T01:35:14;2.35;;;0.20;;
83282;SDS011;73190;50.780;5.658;2024-03-02T01:37:42;0.85;;;0.20;;
83282;SDS011;73190;50.780;5.658;2024-03-02T01:40:10;1.25;;;0.20;;
83282;SDS011;73190;50.780;5.658;2024-03-02T01:42:38;0.55;;;0.10;;
83282;SDS011;73190;50.780;5.658;2024-03-02T01:45:06;0.40;;;0.00;;
83282;SDS011;73190;50.780;5.658;2024-03-02T01:47:35;0.28;;;0.10;;
83282;SDS011;73190;50.780;5.658;2024-03-02T01:50:02;1.67;;;0.20;;
83282;SDS011;73190;50.780;5.658;2024-03-02T01:52:30;0.85;;;0.20;;
83282;SDS011;73190;50.780;5.658;2024-03-02T01:54:58;1.57;;;0.20;;
83282;SDS011;73190;50.780;5.658;2024-03-02T01:57:25;1.30;;;0.20;;
83282;SDS011;73190;50.780;5.658;2024-03-02T01:59:53;0.35;;;0.10;;
83282;SDS011;73190;50.780;5.658;2024-03-02T02:02:20;0.53;;;0.10;;
83282;SDS011;73190;50.780;5.658;2024-03-02T02:04:48;3.22;;;0.25;;
83282;SDS011;73190;50.780;5.658;2024-03-02T02:07:15;0.95;;;0.20;;
83282;SDS011;73190;50.780;5.658;2024-03-02T02:09:43;0.45;;;0.10;;
83282;SDS011;73190;50.780;5.658;2024-03-02T02:12:11;0.33;;;0.10;;
83282;SDS011;73190;50.780;5.658;2024-03-02T02:14:38;0.62;;;0.10;;
83282;SDS011;73190;50.780;5.658;2024-03-02T02:17:09;0.82;;;0.20;;
83282;SDS011;73190;50.780;5.658;2024-03-02T02:19:36;0.42;;;0.20;;
83282;SDS011;73190;50.780;5.658;2024-03-02T02:22:04;2.17;;;0.10;;
83282;SDS011;73190;50.780;5.658;2024-03-02T02:24:31;1.30;;;0.17;;
83282;SDS011;73190;50.780;5.658;2024-03-02T02:26:59;1.30;;;0.20;;
83282;SDS011;73190;50.780;5.658;2024-03-02T02:29:28;0.75;;;0.03;;
83282;SDS011;73190;50.780;5.658;2024-03-02T02:31:55;1.85;;;0.10;;
83282;SDS011;73190;50.780;5.658;2024-03-02T02:34:23;1.95;;;0.17;;
83282;SDS011;73190;50.780;5.658;2024-03-02T02:36:50;0.88;;;0.10;;
83282;SDS011;73190;50.780;5.658;2024-03-02T02:39:19;0.75;;;0.20;;
83282;SDS011;73190;50.780;5.658;2024-03-02T02:41:48;0.45;;;0.20;;
83282;SDS011;73190;50.780;5.658;2024-03-02T02:44:16;0.53;;;0.15;;
83282;SDS011;73190;50.780;5.658;2024-03-02T02:46:43;1.15;;;0.20;;
83282;SDS011;73190;50.780;5.658;2024-03-02T02:49:11;0.20;;;0.20;;
83282;SDS011;73190;50.780;5.658;2024-03-02T02:51:38;0.82;;;0.10;;
83282;SDS011;73190;50.780;5.658;2024-03-02T02:54:06;0.20;;;0.10;;
83282;SDS011;73190;50.780;5.658;2024-03-02T02:56:33;0.85;;;0.03;;
83282;SDS011;73190;50.780;5.658;2024-03-02T02:59:01;0.20;;;0.10;;
83282;SDS011;73190;50.780;5.658;2024-03-02T03:01:28;0.53;;;0.15;;
83282;SDS011;73190;50.780;5.658;2024-03-02T03:06:43;0.68;;;0.20;;
83282;SDS011;73190;50.780;5.658;2024-03-02T03:09:12;0.65;;;0.13;;
83282;SDS011;73190;50.780;5.658;2024-03-02T03:11:39;1.02;;;0.20;;
83282;SDS011;73190;50.780;5.658;2024-03-02T03:14:07;0.90;;;0.10;;
83282;SDS011;73190;50.780;5.658;2024-03-02T03:16:34;1.75;;;0.10;;
83282;SDS011;73190;50.780;5.658;2024-03-02T03:19:02;2.35;;;0.10;;
83282;SDS011;73190;50.780;5.658;2024-03-02T03:21:29;0.95;;;0.20;;
83282;SDS011;73190;50.780;5.658;2024-03-02T03:23:57;0.33;;;0.10;;
83282;SDS011;73190;50.780;5.658;2024-03-02T03:26:25;0.60;;;0.20;;
83282;SDS011;73190;50.780;5.658;2024-03-02T03:28:54;1.40;;;0.17;;
83282;SDS011;73190;50.780;5.658;2024-03-02T03:31:21;0.85;;;0.10;;
83282;SDS011;73190;50.780;5.658;2024-03-02T03:33:49;0.70;;;0.20;;
83282;SDS011;73190;50.780;5.658;2024-03-02T03:36:16;1.27;;;0.20;;
83282;SDS011;73190;50.780;5.658;2024-03-02T03:38:44;3.10;;;0.30;;
83282;SDS011;73190;50.780;5.658;2024-03-02T03:41:11;1.20;;;0.33;;
83282;SDS011;73190;50.780;5.658;2024-03-02T03:43:39;2.30;;;0.23;;
83282;SDS011;73190;50.780;5.658;2024-03-02T03:46:07;2.80;;;0.30;;
83282;SDS011;73190;50.780;5.658;2024-03-02T03:48:34;1.35;;;0.20;;
83282;SDS011;73190;50.780;5.658;2024-03-02T03:51:02;2.45;;;0.30;;
83282;SDS011;73190;50.780;5.658;2024-03-02T03:53:30;1.00;;;0.30;;
83282;SDS011;73190;50.780;5.658;2024-03-02T03:55:57;1.20;;;0.30;;
83282;SDS011;73190;50.780;5.658;2024-03-02T03:58:25;3.30;;;0.33;;
83282;SDS011;73190;50.780;5.658;2024-03-02T04:00:53;2.10;;;0.50;;
83282;SDS011;73190;50.780;5.658;2024-03-02T04:03:20;3.62;;;0.50;;
83282;SDS011;73190;50.780;5.658;2024-03-02T04:05:48;2.05;;;0.40;;
83282;SDS011;73190;50.780;5.658;2024-03-02T04:08:15;3.00;;;0.42;;
83282;SDS011;73190;50.780;5.658;2024-03-02T04:10:43;1.92;;;0.40;;
83282;SDS011;73190;50.780;5.658;2024-03-02T04:13:10;1.77;;;0.33;;
83282;SDS011;73190;50.780;5.658;2024-03-02T04:15:38;0.88;;;0.23;;
83282;SDS011;73190;50.780;5.658;2024-03-02T04:18:06;2.22;;;0.20;;
83282;SDS011;73190;50.780;5.658;2024-03-02T04:20:34;2.15;;;0.30;;
83282;SDS011;73190;50.780;5.658;2024-03-02T04:23:01;0.68;;;0.20;;
83282;SDS011;73190;50.780;5.658;2024-03-02T04:25:29;1.35;;;0.20;;
83282;SDS011;73190;50.780;5.658;2024-03-02T04:27:56;1.70;;;0.33;;
83282;SDS011;73190;50.780;5.658;2024-03-02T04:30:24;1.00;;;0.20;;
83282;SDS011;73190;50.780;5.658;2024-03-02T04:32:51;1.05;;;0.20;;
83282;SDS011;73190;50.780;5.658;2024-03-02T04:35:19;1.35;;;0.20;;
83282;SDS011;73190;50.780;5.658;2024-03-02T04:37:47;5.00;;;0.33;;
83282;SDS011;73190;50.780;5.658;2024-03-02T04:40:14;1.22;;;0.23;;
83282;SDS011;73190;50.780;5.658;2024-03-02T04:42:42;3.25;;;0.30;;
83282;SDS011;73190;50.780;5.658;2024-03-02T04:45:09;1.05;;;0.33;;
83282;SDS011;73190;50.780;5.658;2024-03-02T04:47:37;1.17;;;0.30;;
83282;SDS011;73190;50.780;5.658;2024-03-02T04:50:05;4.67;;;0.30;;
83282;SDS011;73190;50.780;5.658;2024-03-02T04:52:33;1.82;;;0.20;;
83282;SDS011;73190;50.780;5.658;2024-03-02T04:55:01;1.12;;;0.17;;
83282;SDS011;73190;50.780;5.658;2024-03-02T04:57:46;3.05;;;0.30;;
83282;SDS011;73190;50.780;5.658;2024-03-02T05:00:15;2.05;;;0.20;;
83282;SDS011;73190;50.780;5.658;2024-03-02T05:02:43;3.00;;;0.60;;
83282;SDS011;73190;50.780;5.658;2024-03-02T05:05:11;2.12;;;0.17;;
83282;SDS011;73190;50.780;5.658;2024-03-02T05:07:38;1.85;;;0.88;;
83282;SDS011;73190;50.780;5.658;2024-03-02T05:10:10;2.27;;;0.30;;
83282;SDS011;73190;50.780;5.658;2024-03-02T05:12:38;2.05;;;0.28;;
83282;SDS011;73190;50.780;5.658;2024-03-02T05:15:12;2.47;;;0.57;;
83282;SDS011;73190;50.780;5.658;2024-03-02T05:17:41;2.37;;;0.30;;
83282;SDS011;73190;50.780;5.658;2024-03-02T05:20:12;0.72;;;0.20;;
83282;SDS011;73190;50.780;5.658;2024-03-02T05:22:39;2.33;;;0.28;;
83282;SDS011;73190;50.780;5.658;2024-03-02T05:25:07;3.02;;;0.30;;
83282;SDS011;73190;50.780;5.658;2024-03-02T05:27:36;2.05;;;0.20;;
83282;SDS011;73190;50.780;5.658;2024-03-02T05:30:04;1.72;;;0.37;;
83282;SDS011;73190;50.780;5.658;2024-03-02T05:32:32;3.40;;;0.30;;
83282;SDS011;73190;50.780;5.658;2024-03-02T05:35:00;2.08;;;0.28;;
83282;SDS011;73190;50.780;5.658;2024-03-02T05:37:28;1.67;;;0.20;;
83282;SDS011;73190;50.780;5.658;2024-03-02T05:39:56;1.67;;;0.37;;
83282;SDS011;73190;50.780;5.658;2024-03-02T05:42:25;2.40;;;0.40;;
83282;SDS011;73190;50.780;5.658;2024-03-02T05:44:53;3.55;;;0.30;;
83282;SDS011;73190;50.780;5.658;2024-03-02T05:47:21;3.08;;;0.23;;
83282;SDS011;73190;50.780;5.658;2024-03-02T05:49:48;2.37;;;0.20;;
83282;SDS011;73190;50.780;5.658;2024-03-02T05:52:16;1.32;;;0.28;;
83282;SDS011;73190;50.780;5.658;2024-03-02T05:54:43;2.10;;;0.33;;
83282;SDS011;73190;50.780;5.658;2024-03-02T05:57:11;2.22;;;0.40;;
83282;SDS011;73190;50.780;5.658;2024-03-02T05:59:57;3.77;;;0.60;;
83282;SDS011;73190;50.780;5.658;2024-03-02T06:02:24;4.78;;;1.60;;
83282;SDS011;73190;50.780;5.658;2024-03-02T06:04:53;2.55;;;0.53;;
83282;SDS011;73190;50.780;5.658;2024-03-02T06:07:22;3.42;;;0.30;;
83282;SDS011;73190;50.780;5.658;2024-03-02T06:09:50;4.15;;;0.30;;
83282;SDS011;73190;50.780;5.658;2024-03-02T06:12:18;3.65;;;0.60;;
83282;SDS011;73190;50.780;5.658;2024-03-02T06:14:46;1.75;;;0.30;;
83282;SDS011;73190;50.780;5.658;2024-03-02T06:17:13;4.33;;;0.40;;
83282;SDS011;73190;50.780;5.658;2024-03-02T06:19:41;2.87;;;0.40;;
83282;SDS011;73190;50.780;5.658;2024-03-02T06:22:08;4.33;;;0.30;;
83282;SDS011;73190;50.780;5.658;2024-03-02T06:24:36;4.35;;;0.40;;
83282;SDS011;73190;50.780;5.658;2024-03-02T06:27:04;2.08;;;0.47;;
83282;SDS011;73190;50.780;5.658;2024-03-02T06:29:34;4.08;;;0.55;;
83282;SDS011;73190;50.780;5.658;2024-03-02T06:32:02;3.08;;;0.40;;
83282;SDS011;73190;50.780;5.658;2024-03-02T06:34:30;3.55;;;0.40;;
83282;SDS011;73190;50.780;5.658;2024-03-02T06:36:57;4.47;;;0.40;;
83282;SDS011;73190;50.780;5.658;2024-03-02T06:39:25;3.87;;;0.53;;
83282;SDS011;73190;50.780;5.658;2024-03-02T06:41:52;2.45;;;0.40;;
83282;SDS011;73190;50.780;5.658;2024-03-02T06:44:20;5.85;;;0.95;;
83282;SDS011;73190;50.780;5.658;2024-03-02T06:46:47;2.45;;;0.50;;
83282;SDS011;73190;50.780;5.658;2024-03-02T06:49:15;4.42;;;1.00;;
83282;SDS011;73190;50.780;5.658;2024-03-02T06:51:44;6.50;;;0.70;;
83282;SDS011;73190;50.780;5.658;2024-03-02T06:54:11;2.58;;;1.20;;
83282;SDS011;73190;50.780;5.658;2024-03-02T06:56:39;2.77;;;0.60;;
83282;SDS011;73190;50.780;5.658;2024-03-02T06:59:06;2.83;;;0.62;;
83282;SDS011;73190;50.780;5.658;2024-03-02T07:01:34;5.25;;;0.57;;
83282;SDS011;73190;50.780;5.658;2024-03-02T07:04:01;3.00;;;0.53;;
83282;SDS011;73190;50.780;5.658;2024-03-02T07:06:31;3.40;;;0.33;;
83282;SDS011;73190;50.780;5.658;2024-03-02T07:08:58;10.32;;;4.03;;
83282;SDS011;73190;50.780;5.658;2024-03-02T07:11:26;3.52;;;1.15;;
83282;SDS011;73190;50.780;5.658;2024-03-02T07:13:53;4.62;;;0.57;;
83282;SDS011;73190;50.780;5.658;2024-03-02T07:16:21;11.85;;;0.82;;
83282;SDS011;73190;50.780;5.658;2024-03-02T07:18:55;15.75;;;2.02;;
83282;SDS011;73190;50.780;5.658;2024-03-02T07:21:24;10.13;;;1.70;;
83282;SDS011;73190;50.780;5.658;2024-03-02T07:23:52;17.85;;;2.65;;
83282;SDS011;73190;50.780;5.658;2024-03-02T07:26:19;16.87;;;3.08;;
83282;SDS011;73190;50.780;5.658;2024-03-02T07:28:47;19.23;;;2.27;;
83282;SDS011;73190;50.780;5.658;2024-03-02T07:31:15;16.20;;;3.12;;
83282;SDS011;73190;50.780;5.658;2024-03-02T07:33:46;17.30;;;2.83;;
83282;SDS011;73190;50.780;5.658;2024-03-02T07:36:14;20.45;;;2.85;;
83282;SDS011;73190;50.780;5.658;2024-03-02T07:38:42;21.48;;;2.75;;
83282;SDS011;73190;50.780;5.658;2024-03-02T07:41:10;19.98;;;3.20;;
83282;SDS011;73190;50.780;5.658;2024-03-02T07:43:38;21.15;;;3.70;;
83282;SDS011;73190;50.780;5.658;2024-03-02T07:46:06;15.38;;;3.35;;
83282;SDS011;73190;50.780;5.658;2024-03-02T07:48:33;17.85;;;2.00;;
83282;SDS011;73190;50.780;5.658;2024-03-02T07:51:01;14.93;;;2.85;;
83282;SDS011;73190;50.780;5.658;2024-03-02T07:53:29;11.70;;;1.50;;
83282;SDS011;73190;50.780;5.658;2024-03-02T07:55:56;15.00;;;2.08;;
83282;SDS011;73190;50.780;5.658;2024-03-02T07:58:25;11.73;;;2.00;;
83282;SDS011;73190;50.780;5.658;2024-03-02T08:00:53;11.10;;;1.20;;
83282;SDS011;73190;50.780;5.658;2024-03-02T08:03:21;10.25;;;1.37;;
83282;SDS011;73190;50.780;5.658;2024-03-02T08:05:48;10.80;;;2.27;;
83282;SDS011;73190;50.780;5.658;2024-03-02T08:08:16;7.33;;;1.50;;
83282;SDS011;73190;50.780;5.658;2024-03-02T08:10:44;11.53;;;1.62;;
83282;SDS011;73190;50.780;5.658;2024-03-02T08:13:11;10.72;;;1.50;;
83282;SDS011;73190;50.780;5.658;2024-03-02T08:15:39;8.60;;;1.72;;
83282;SDS011;73190;50.780;5.658;2024-03-02T08:18:07;14.85;;;2.27;;
83282;SDS011;73190;50.780;5.658;2024-03-02T08:20:35;12.43;;;1.95;;
83282;SDS011;73190;50.780;5.658;2024-03-02T08:23:02;14.80;;;2.35;;
83282;SDS011;73190;50.780;5.658;2024-03-02T08:25:30;6.03;;;1.12;;
83282;SDS011;73190;50.780;5.658;2024-03-02T08:27:58;9.55;;;0.82;;
83282;SDS011;73190;50.780;5.658;2024-03-02T08:30:25;4.92;;;1.02;;
83282;SDS011;73190;50.780;5.658;2024-03-02T08:32:53;1.85;;;0.40;;
83282;SDS011;73190;50.780;5.658;2024-03-02T08:35:20;6.05;;;0.80;;
83282;SDS011;73190;50.780;5.658;2024-03-02T08:37:49;5.05;;;0.72;;
83282;SDS011;73190;50.780;5.658;2024-03-02T08:40:16;2.65;;;0.50;;
83282;SDS011;73190;50.780;5.658;2024-03-02T08:42:44;4.15;;;0.80;;
83282;SDS011;73190;50.780;5.658;2024-03-02T08:45:12;5.97;;;0.90;;
83282;SDS011;73190;50.780;5.658;2024-03-02T08:47:39;8.05;;;1.32;;
83282;SDS011;73190;50.780;5.658;2024-03-02T08:50:07;5.50;;;0.90;;
83282;SDS011;73190;50.780;5.658;2024-03-02T08:52:40;6.47;;;0.90;;
83282;SDS011;73190;50.780;5.658;2024-03-02T08:55:04;6.10;;;1.03;;
83282;SDS011;73190;50.780;5.658;2024-03-02T08:57:33;7.67;;;0.90;;
83282;SDS011;73190;50.780;5.658;2024-03-02T09:00:01;6.95;;;1.00;;
83282;SDS011;73190;50.780;5.658;2024-03-02T09:05:09;6.12;;;0.70;;
83282;SDS011;73190;50.780;5.658;2024-03-02T09:07:37;3.67;;;0.80;;
83282;SDS011;73190;50.780;5.658;2024-03-02T09:10:05;5.50;;;0.70;;
83282;SDS011;73190;50.780;5.658;2024-03-02T09:12:34;4.03;;;0.80;;
83282;SDS011;73190;50.780;5.658;2024-03-02T09:15:02;7.53;;;0.98;;
83282;SDS011;73190;50.780;5.658;2024-03-02T09:17:32;5.75;;;0.70;;
83282;SDS011;73190;50.780;5.658;2024-03-02T09:19:59;5.83;;;0.98;;
83282;SDS011;73190;50.780;5.658;2024-03-02T09:22:27;4.35;;;1.22;;
83282;SDS011;73190;50.780;5.658;2024-03-02T09:24:55;8.38;;;0.80;;
83282;SDS011;73190;50.780;5.658;2024-03-02T09:27:23;5.67;;;0.60;;
83282;SDS011;73190;50.780;5.658;2024-03-02T09:29:50;5.37;;;0.90;;
83282;SDS011;73190;50.780;5.658;2024-03-02T09:32:18;6.62;;;0.70;;
83282;SDS011;73190;50.780;5.658;2024-03-02T09:34:46;4.22;;;0.50;;
83282;SDS011;73190;50.780;5.658;2024-03-02T09:37:14;8.45;;;0.95;;
83282;SDS011;73190;50.780;5.658;2024-03-02T09:39:43;6.12;;;1.22;;
83282;SDS011;73190;50.780;5.658;2024-03-02T09:42:11;7.67;;;1.47;;
83282;SDS011;73190;50.780;5.658;2024-03-02T09:44:43;7.70;;;1.30;;
83282;SDS011;73190;50.780;5.658;2024-03-02T09:47:11;18.65;;;1.57;;
83282;SDS011;73190;50.780;5.658;2024-03-02T09:49:38;5.45;;;0.85;;
83282;SDS011;73190;50.780;5.658;2024-03-02T09:52:07;9.60;;;1.12;;
83282;SDS011;73190;50.780;5.658;2024-03-02T09:54:35;3.20;;;0.80;;
83282;SDS011;73190;50.780;5.658;2024-03-02T09:57:02;9.45;;;1.50;;
83282;SDS011;73190;50.780;5.658;2024-03-02T09:59:30;10.72;;;1.62;;
83282;SDS011;73190;50.780;5.658;2024-03-02T10:01:59;6.72;;;2.17;;
83282;SDS011;73190;50.780;5.658;2024-03-02T10:04:30;9.25;;;1.82;;
83282;SDS011;73190;50.780;5.658;2024-03-02T10:07:32;6.50;;;1.00;;
83282;SDS011;73190;50.780;5.658;2024-03-02T10:09:39;7.58;;;1.42;;
83282;SDS011;73190;50.780;5.658;2024-03-02T10:12:09;5.15;;;0.85;;
83282;SDS011;73190;50.780;5.658;2024-03-02T10:14:38;6.37;;;1.02;;
83282;SDS011;73190;50.780;5.658;2024-03-02T10:17:07;7.00;;;1.02;;
83282;SDS011;73190;50.780;5.658;2024-03-02T10:19:36;6.42;;;1.27;;
83282;SDS011;73190;50.780;5.658;2024-03-02T10:22:05;6.30;;;1.50;;
83282;SDS011;73190;50.780;5.658;2024-03-02T10:24:43;9.00;;;1.70;;
83282;SDS011;73190;50.780;5.658;2024-03-02T10:27:16;6.70;;;1.60;;
83282;SDS011;73190;50.780;5.658;2024-03-02T10:29:46;9.50;;;1.60;;
83282;SDS011;73190;50.780;5.658;2024-03-02T10:32:15;5.08;;;1.20;;
83282;SDS011;73190;50.780;5.658;2024-03-02T10:34:44;8.30;;;1.98;;
83282;SDS011;73190;50.780;5.658;2024-03-02T10:37:14;7.78;;;1.50;;
83282;SDS011;73190;50.780;5.658;2024-03-02T10:39:45;12.23;;;1.67;;
83282;SDS011;73190;50.780;5.658;2024-03-02T10:42:13;7.97;;;1.73;;
83282;SDS011;73190;50.780;5.658;2024-03-02T10:44:42;9.58;;;1.20;;
83282;SDS011;73190;50.780;5.658;2024-03-02T10:47:10;10.28;;;1.98;;
83282;SDS011;73190;50.780;5.658;2024-03-02T10:49:40;12.68;;;1.90;;
83282;SDS011;73190;50.780;5.658;2024-03-02T10:52:09;12.82;;;1.85;;
83282;SDS011;73190;50.780;5.658;2024-03-02T10:54:37;10.10;;;1.37;;
83282;SDS011;73190;50.780;5.658;2024-03-02T10:57:05;5.20;;;1.10;;
83282;SDS011;73190;50.780;5.658;2024-03-02T10:59:40;4.70;;;1.00;;
83282;SDS011;73190;50.780;5.658;2024-03-02T11:02:11;6.83;;;1.27;;
83282;SDS011;73190;50.780;5.658;2024-03-02T11:04:40;5.80;;;1.40;;
83282;SDS011;73190;50.780;5.658;2024-03-02T11:07:10;5.65;;;1.02;;
83282;SDS011;73190;50.780;5.658;2024-03-02T11:09:45;8.53;;;1.57;;
83282;SDS011;73190;50.780;5.658;2024-03-02T11:12:14;9.78;;;1.90;;
83282;SDS011;73190;50.780;5.658;2024-03-02T11:14:46;3.87;;;1.12;;
83282;SDS011;73190;50.780;5.658;2024-03-02T11:17:15;5.35;;;0.90;;
83282;SDS011;73190;50.780;5.658;2024-03-02T11:19:43;5.60;;;1.22;;
83282;SDS011;73190;50.780;5.658;2024-03-02T11:22:13;7.58;;;1.40;;
83282;SDS011;73190;50.780;5.658;2024-03-02T11:24:48;5.87;;;1.57;;
83282;SDS011;73190;50.780;5.658;2024-03-02T11:28:03;4.78;;;1.10;;
83282;SDS011;73190;50.780;5.658;2024-03-02T11:30:05;4.47;;;0.90;;
83282;SDS011;73190;50.780;5.658;2024-03-02T11:32:33;7.67;;;1.27;;
83282;SDS011;73190;50.780;5.658;2024-03-02T11:35:01;9.73;;;1.47;;
83282;SDS011;73190;50.780;5.658;2024-03-02T11:37:30;4.78;;;0.90;;
83282;SDS011;73190;50.780;5.658;2024-03-02T11:39:57;5.55;;;1.00;;
83282;SDS011;73190;50.780;5.658;2024-03-02T11:42:25;5.75;;;1.30;;
83282;SDS011;73190;50.780;5.658;2024-03-02T11:44:53;3.80;;;0.80;;
83282;SDS011;73190;50.780;5.658;2024-03-02T11:49:50;4.65;;;0.80;;
83282;SDS011;73190;50.780;5.658;2024-03-02T11:52:18;6.90;;;1.40;;
83282;SDS011;73190;50.780;5.658;2024-03-02T11:54:46;7.47;;;1.20;;
83282;SDS011;73190;50.780;5.658;2024-03-02T11:57:17;3.92;;;0.80;;
83282;SDS011;73190;50.780;5.658;2024-03-02T11:59:52;3.80;;;0.90;;
83282;SDS011;73190;50.780;5.658;2024-03-02T12:02:22;2.42;;;0.90;;
83282;SDS011;73190;50.780;5.658;2024-03-02T12:04:50;2.90;;;1.02;;
83282;SDS011;73190;50.780;5.658;2024-03-02T12:07:21;4.58;;;0.93;;
83282;SDS011;73190;50.780;5.658;2024-03-02T12:09:59;2.85;;;0.70;;
83282;SDS011;73190;50.780;5.658;2024-03-02T12:12:31;7.90;;;0.88;;
83282;SDS011;73190;50.780;5.658;2024-03-02T12:14:58;7.30;;;1.47;;
83282;SDS011;73190;50.780;5.658;2024-03-02T12:17:26;3.95;;;1.05;;
83282;SDS011;73190;50.780;5.658;2024-03-02T12:19:54;5.55;;;1.05;;
83282;SDS011;73190;50.780;5.658;2024-03-02T12:22:22;4.35;;;1.02;;
83282;SDS011;73190;50.780;5.658;2024-03-02T12:24:50;8.75;;;1.52;;
83282;SDS011;73190;50.780;5.658;2024-03-02T12:27:18;4.10;;;1.15;;
83282;SDS011;73190;50.780;5.658;2024-03-02T12:29:46;10.68;;;1.75;;
83282;SDS011;73190;50.780;5.658;2024-03-02T12:32:15;7.33;;;1.10;;
83282;SDS011;73190;50.780;5.658;2024-03-02T12:34:46;7.95;;;1.20;;
83282;SDS011;73190;50.780;5.658;2024-03-02T12:37:13;3.35;;;0.88;;
83282;SDS011;73190;50.780;5.658;2024-03-02T12:39:44;6.62;;;1.00;;
83282;SDS011;73190;50.780;5.658;2024-03-02T12:42:13;5.37;;;0.90;;
83282;SDS011;73190;50.780;5.658;2024-03-02T12:44:40;5.75;;;1.45;;
83282;SDS011;73190;50.780;5.658;2024-03-02T12:47:08;8.08;;;1.47;;
83282;SDS011;73190;50.780;5.658;2024-03-02T12:49:35;3.35;;;1.12;;
83282;SDS011;73190;50.780;5.658;2024-03-02T12:52:03;4.92;;;0.62;;
83282;SDS011;73190;50.780;5.658;2024-03-02T12:54:31;2.12;;;0.45;;
83282;SDS011;73190;50.780;5.658;2024-03-02T12:57:00;8.83;;;1.02;;
83282;SDS011;73190;50.780;5.658;2024-03-02T12:59:28;3.22;;;0.80;;
83282;SDS011;73190;50.780;5.658;2024-03-02T13:01:57;2.77;;;0.75;;
83282;SDS011;73190;50.780;5.658;2024-03-02T13:04:25;3.62;;;0.82;;
83282;SDS011;73190;50.780;5.658;2024-03-02T13:06:54;2.35;;;0.50;;
83282;SDS011;73190;50.780;5.658;2024-03-02T13:09:23;1.85;;;0.42;;
83282;SDS011;73190;50.780;5.658;2024-03-02T13:11:51;1.80;;;0.57;;
83282;SDS011;73190;50.780;5.658;2024-03-02T13:14:21;2.92;;;0.70;;
83282;SDS011;73190;50.780;5.658;2024-03-02T13:16:50;4.22;;;0.75;;
83282;SDS011;73190;50.780;5.658;2024-03-02T13:19:18;1.60;;;0.42;;
83282;SDS011;73190;50.780;5.658;2024-03-02T13:21:46;4.33;;;0.85;;
83282;SDS011;73190;50.780;5.658;2024-03-02T13:24:13;8.40;;;1.12;;
83282;SDS011;73190;50.780;5.658;2024-03-02T13:26:41;3.17;;;1.00;;
83282;SDS011;73190;50.780;5.658;2024-03-02T13:29:08;6.50;;;0.80;;
83282;SDS011;73190;50.780;5.658;2024-03-02T13:31:36;5.60;;;0.98;;
83282;SDS011;73190;50.780;5.658;2024-03-02T13:34:03;3.58;;;0.70;;
83282;SDS011;73190;50.780;5.658;2024-03-02T13:36:31;5.47;;;0.70;;
83282;SDS011;73190;50.780;5.658;2024-03-02T13:38:59;2.58;;;0.62;;
83282;SDS011;73190;50.780;5.658;2024-03-02T13:41:26;3.52;;;0.80;;
83282;SDS011;73190;50.780;5.658;2024-03-02T13:43:54;7.00;;;1.42;;
83282;SDS011;73190;50.780;5.658;2024-03-02T13:46:21;5.33;;;1.30;;
83282;SDS011;73190;50.780;5.658;2024-03-02T13:48:49;5.75;;;1.82;;
83282;SDS011;73190;50.780;5.658;2024-03-02T13:51:17;4.87;;;0.95;;
83282;SDS011;73190;50.780;5.658;2024-03-02T13:53:45;5.40;;;1.65;;
83282;SDS011;73190;50.780;5.658;2024-03-02T13:56:12;4.40;;;0.82;;
83282;SDS011;73190;50.780;5.658;2024-03-02T13:58:40;7.97;;;1.40;;
83282;SDS011;73190;50.780;5.658;2024-03-02T14:01:11;6.08;;;1.10;;
83282;SDS011;73190;50.780;5.658;2024-03-02T14:03:39;4.15;;;1.47;;
83282;SDS011;73190;50.780;5.658;2024-03-02T14:06:07;3.52;;;0.80;;
83282;SDS011;73190;50.780;5.658;2024-03-02T14:08:34;1.72;;;0.40;;
83282;SDS011;73190;50.780;5.658;2024-03-02T14:11:02;9.20;;;1.17;;
83282;SDS011;73190;50.780;5.658;2024-03-02T14:13:30;3.25;;;0.90;;
83282;SDS011;73190;50.780;5.658;2024-03-02T14:15:57;2.05;;;0.60;;
83282;SDS011;73190;50.780;5.658;2024-03-02T14:18:25;1.67;;;0.70;;
83282;SDS011;73190;50.780;5.658;2024-03-02T14:20:52;2.95;;;1.00;;
83282;SDS011;73190;50.780;5.658;2024-03-02T14:23:20;6.72;;;1.20;;
83282;SDS011;73190;50.780;5.658;2024-03-02T14:25:47;3.95;;;1.12;;
83282;SDS011;73190;50.780;5.658;2024-03-02T14:28:15;3.52;;;1.17;;
83282;SDS011;73190;50.780;5.658;2024-03-02T14:30:44;7.72;;;1.25;;
83282;SDS011;73190;50.780;5.658;2024-03-02T14:33:11;6.15;;;1.98;;
83282;SDS011;73190;50.780;5.658;2024-03-02T14:35:42;7.78;;;1.80;;
83282;SDS011;73190;50.780;5.658;2024-03-02T14:38:12;9.35;;;2.10;;
83282;SDS011;73190;50.780;5.658;2024-03-02T14:40:39;4.62;;;1.20;;
83282;SDS011;73190;50.780;5.658;2024-03-02T14:43:07;5.50;;;1.20;;
83282;SDS011;73190;50.780;5.658;2024-03-02T14:45:35;2.85;;;0.93;;
83282;SDS011;73190;50.780;5.658;2024-03-02T14:48:03;25.95;;;12.63;;
83282;SDS011;73190;50.780;5.658;2024-03-02T14:50:31;11.38;;;3.65;;
83282;SDS011;73190;50.780;5.658;2024-03-02T14:53:00;10.10;;;3.67;;
83282;SDS011;73190;50.780;5.658;2024-03-02T14:55:28;7.92;;;1.75;;
83282;SDS011;73190;50.780;5.658;2024-03-02T14:57:56;4.62;;;1.47;;
83282;SDS011;73190;50.780;5.658;2024-03-02T15:00:23;4.00;;;0.95;;
83282;SDS011;73190;50.780;5.658;2024-03-02T15:02:51;2.58;;;0.82;;
83282;SDS011;73190;50.780;5.658;2024-03-02T15:05:18;4.30;;;1.10;;
83282;SDS011;73190;50.780;5.658;2024-03-02T15:07:46;10.82;;;1.85;;